sensor_id;sensor_type;location;lat;lon;timestamp;pressure;altitude;pressure_sealevel;temperature;humidity
80186;BME280;69904;52.122;5.422;2023-09-12T00:02:10;101337.25;;;20.72;80.23
80186;BME280;69904;52.122;5.422;2023-09-12T00:04:36;101351.28;;;20.75;80.60
80186;BME280;69904;52.122;5.422;2023-09-12T00:07:03;101347.94;;;20.73;80.06
80186;BME280;69904;52.122;5.422;2023-09-12T00:09:29;101338.31;;;20.71;80.55
80186;BME280;69904;52.122;5.422;2023-09-12T00:11:56;101342.16;;;20.70;80.69
80186;BME280;69904;52.122;5.422;2023-09-12T00:14:22;101338.31;;;20.71;80.72
80186;BME280;69904;52.122;5.422;2023-09-12T00:16:48;101324.03;;;20.69;80.59
80186;BME280;69904;52.122;5.422;2023-09-12T00:19:16;101321.72;;;20.61;80.61
80186;BME280;69904;52.122;5.422;2023-09-12T00:21:42;101316.72;;;20.57;80.75
80186;BME280;69904;52.122;5.422;2023-09-12T00:24:09;101320.22;;;20.53;80.25
80186;BME280;69904;52.122;5.422;2023-09-12T00:26:35;101316.66;;;20.52;80.50
80186;BME280;69904;52.122;5.422;2023-09-12T00:29:01;101314.44;;;20.49;80.79
80186;BME280;69904;52.122;5.422;2023-09-12T00:31:28;101311.94;;;20.48;80.77
80186;BME280;69904;52.122;5.422;2023-09-12T00:33:55;101310.53;;;20.45;80.60
80186;BME280;69904;52.122;5.422;2023-09-12T00:36:21;101301.72;;;20.43;80.48
80186;BME280;69904;52.122;5.422;2023-09-12T00:38:48;101309.34;;;20.41;80.71
80186;BME280;69904;52.122;5.422;2023-09-12T00:41:14;101314.50;;;20.38;80.88
80186;BME280;69904;52.122;5.422;2023-09-12T00:43:40;101324.34;;;20.34;80.92
80186;BME280;69904;52.122;5.422;2023-09-12T00:46:07;101319.31;;;20.31;81.16
80186;BME280;69904;52.122;5.422;2023-09-12T00:48:33;101325.41;;;20.33;80.45
80186;BME280;69904;52.122;5.422;2023-09-12T00:51:00;101334.91;;;20.30;80.77
80186;BME280;69904;52.122;5.422;2023-09-12T00:53:27;101330.78;;;20.28;80.69
80186;BME280;69904;52.122;5.422;2023-09-12T00:55:56;101334.28;;;20.23;80.73
80186;BME280;69904;52.122;5.422;2023-09-12T00:58:24;101329.19;;;20.15;80.60
80186;BME280;69904;52.122;5.422;2023-09-12T01:00:51;101323.47;;;20.00;80.10
80186;BME280;69904;52.122;5.422;2023-09-12T01:03:18;101321.97;;;19.92;80.06
80186;BME280;69904;52.122;5.422;2023-09-12T01:05:44;101331.00;;;19.93;80.08
80186;BME280;69904;52.122;5.422;2023-09-12T01:08:12;101328.53;;;19.91;80.20
80186;BME280;69904;52.122;5.422;2023-09-12T01:10:38;101326.84;;;19.90;80.15
80186;BME280;69904;52.122;5.422;2023-09-12T01:13:05;101320.47;;;19.85;80.17
80186;BME280;69904;52.122;5.422;2023-09-12T01:15:31;101320.97;;;19.82;79.88
80186;BME280;69904;52.122;5.422;2023-09-12T01:17:58;101317.63;;;19.80;80.22
80186;BME280;69904;52.122;5.422;2023-09-12T01:20:27;101319.22;;;19.75;80.15
80186;BME280;69904;52.122;5.422;2023-09-12T01:23:03;101326.00;;;19.73;80.17
80186;BME280;69904;52.122;5.422;2023-09-12T01:26:08;101323.41;;;19.66;79.94
80186;BME280;69904;52.122;5.422;2023-09-12T01:28:44;101325.56;;;19.64;79.84
80186;BME280;69904;52.122;5.422;2023-09-12T01:31:12;101333.69;;;19.59;80.25
80186;BME280;69904;52.122;5.422;2023-09-12T01:33:39;101335.00;;;19.57;80.30
80186;BME280;69904;52.122;5.422;2023-09-12T01:36:09;101328.69;;;19.56;80.30
80186;BME280;69904;52.122;5.422;2023-09-12T01:38:36;101326.22;;;19.55;80.43
80186;BME280;69904;52.122;5.422;2023-09-12T01:41:02;101321.81;;;19.54;80.59
80186;BME280;69904;52.122;5.422;2023-09-12T01:43:29;101329.75;;;19.55;80.28
80186;BME280;69904;52.122;5.422;2023-09-12T01:45:59;101319.91;;;19.54;80.47
80186;BME280;69904;52.122;5.422;2023-09-12T01:48:32;101313.00;;;19.52;80.76
80186;BME280;69904;52.122;5.422;2023-09-12T01:51:03;101315.41;;;19.48;80.81
80186;BME280;69904;52.122;5.422;2023-09-12T01:53:32;101319.94;;;19.43;81.64
80186;BME280;69904;52.122;5.422;2023-09-12T01:55:59;101317.41;;;19.41;81.31
80186;BME280;69904;52.122;5.422;2023-09-12T01:58:26;101314.69;;;19.41;81.82
80186;BME280;69904;52.122;5.422;2023-09-12T02:00:52;101312.78;;;19.42;81.48
80186;BME280;69904;52.122;5.422;2023-09-12T02:03:19;101314.44;;;19.43;81.54
80186;BME280;69904;52.122;5.422;2023-09-12T02:05:45;101311.94;;;19.41;81.35
80186;BME280;69904;52.122;5.422;2023-09-12T02:08:12;101309.22;;;19.41;81.15
80186;BME280;69904;52.122;5.422;2023-09-12T02:10:38;101296.03;;;19.38;81.30
80186;BME280;69904;52.122;5.422;2023-09-12T02:13:05;101303.63;;;19.36;81.73
80186;BME280;69904;52.122;5.422;2023-09-12T02:15:31;101306.38;;;19.36;81.41
80186;BME280;69904;52.122;5.422;2023-09-12T02:17:58;101305.78;;;19.34;81.68
80186;BME280;69904;52.122;5.422;2023-09-12T02:20:25;101310.44;;;19.33;81.97
80186;BME280;69904;52.122;5.422;2023-09-12T02:22:51;101301.13;;;19.34;82.15
80186;BME280;69904;52.122;5.422;2023-09-12T02:25:18;101310.91;;;19.30;81.91
80186;BME280;69904;52.122;5.422;2023-09-12T02:27:44;101303.78;;;19.29;82.28
80186;BME280;69904;52.122;5.422;2023-09-12T02:30:11;101309.53;;;19.28;82.27
80186;BME280;69904;52.122;5.422;2023-09-12T02:32:37;101303.34;;;19.21;82.72
80186;BME280;69904;52.122;5.422;2023-09-12T02:35:04;101306.22;;;19.14;83.05
80186;BME280;69904;52.122;5.422;2023-09-12T02:37:30;101310.84;;;19.14;82.95
80186;BME280;69904;52.122;5.422;2023-09-12T02:39:57;101314.22;;;19.04;83.34
80186;BME280;69904;52.122;5.422;2023-09-12T02:42:23;101318.03;;;19.03;83.45
80186;BME280;69904;52.122;5.422;2023-09-12T02:44:50;101322.44;;;19.04;83.82
80186;BME280;69904;52.122;5.422;2023-09-12T02:47:18;101309.81;;;19.03;83.72
80186;BME280;69904;52.122;5.422;2023-09-12T02:49:45;101308.97;;;19.03;84.00
80186;BME280;69904;52.122;5.422;2023-09-12T02:52:11;101312.31;;;19.05;83.81
80186;BME280;69904;52.122;5.422;2023-09-12T02:54:37;101319.69;;;19.04;83.56
80186;BME280;69904;52.122;5.422;2023-09-12T02:57:04;101321.34;;;19.05;83.04
80186;BME280;69904;52.122;5.422;2023-09-12T02:59:31;101319.34;;;19.01;83.18
80186;BME280;69904;52.122;5.422;2023-09-12T03:01:58;101309.25;;;19.01;83.05
80186;BME280;69904;52.122;5.422;2023-09-12T03:04:25;101311.38;;;18.99;82.87
80186;BME280;69904;52.122;5.422;2023-09-12T03:06:51;101318.97;;;18.97;82.44
80186;BME280;69904;52.122;5.422;2023-09-12T03:09:18;101324.13;;;18.93;82.29
80186;BME280;69904;52.122;5.422;2023-09-12T03:11:45;101328.97;;;18.91;81.98
80186;BME280;69904;52.122;5.422;2023-09-12T03:14:12;101317.47;;;18.89;81.70
80186;BME280;69904;52.122;5.422;2023-09-12T03:16:38;101319.50;;;18.82;81.25
80186;BME280;69904;52.122;5.422;2023-09-12T03:19:06;101320.56;;;18.81;81.13
80186;BME280;69904;52.122;5.422;2023-09-12T03:21:32;101321.28;;;18.77;81.08
80186;BME280;69904;52.122;5.422;2023-09-12T03:23:59;101328.31;;;18.73;81.35
80186;BME280;69904;52.122;5.422;2023-09-12T03:26:25;101322.00;;;18.72;80.99
80186;BME280;69904;52.122;5.422;2023-09-12T03:28:52;101320.00;;;18.68;81.14
80186;BME280;69904;52.122;5.422;2023-09-12T03:31:19;101316.91;;;18.64;81.09
80186;BME280;69904;52.122;5.422;2023-09-12T03:33:45;101307.88;;;18.64;81.36
80186;BME280;69904;52.122;5.422;2023-09-12T03:36:16;101309.41;;;18.60;81.21
80186;BME280;69904;52.122;5.422;2023-09-12T03:38:46;101300.97;;;18.61;81.22
80186;BME280;69904;52.122;5.422;2023-09-12T03:41:13;101305.97;;;18.64;80.91
80186;BME280;69904;52.122;5.422;2023-09-12T03:43:39;101308.72;;;18.64;80.72
80186;BME280;69904;52.122;5.422;2023-09-12T03:46:05;101316.31;;;18.62;80.89
80186;BME280;69904;52.122;5.422;2023-09-12T03:48:32;101314.03;;;18.59;80.71
80186;BME280;69904;52.122;5.422;2023-09-12T03:51:00;101305.50;;;18.56;81.13
80186;BME280;69904;52.122;5.422;2023-09-12T03:53:27;101309.06;;;18.56;81.29
80186;BME280;69904;52.122;5.422;2023-09-12T03:55:54;101304.19;;;18.58;81.38
80186;BME280;69904;52.122;5.422;2023-09-12T03:58:21;101302.31;;;18.59;81.13
80186;BME280;69904;52.122;5.422;2023-09-12T04:00:48;101305.03;;;18.59;81.01
80186;BME280;69904;52.122;5.422;2023-09-12T04:03:14;101306.09;;;18.58;81.10
80186;BME280;69904;52.122;5.422;2023-09-12T04:05:42;101307.63;;;18.54;81.09
80186;BME280;69904;52.122;5.422;2023-09-12T04:08:09;101303.44;;;18.51;81.35
80186;BME280;69904;52.122;5.422;2023-09-12T04:10:35;101303.22;;;18.52;81.13
80186;BME280;69904;52.122;5.422;2023-09-12T04:13:02;101310.81;;;18.50;81.29
80186;BME280;69904;52.122;5.422;2023-09-12T04:15:28;101305.22;;;18.45;81.34
80186;BME280;69904;52.122;5.422;2023-09-12T04:17:55;101306.78;;;18.41;81.60
80186;BME280;69904;52.122;5.422;2023-09-12T04:20:21;101301.09;;;18.43;81.98
80186;BME280;69904;52.122;5.422;2023-09-12T04:22:48;101292.06;;;18.42;82.09
80186;BME280;69904;52.122;5.422;2023-09-12T04:25:14;101285.50;;;18.43;81.67
80186;BME280;69904;52.122;5.422;2023-09-12T04:27:41;101297.63;;;18.47;82.29
80186;BME280;69904;52.122;5.422;2023-09-12T04:30:08;101285.28;;;18.45;82.28
80186;BME280;69904;52.122;5.422;2023-09-12T04:32:35;101277.91;;;18.45;82.08
80186;BME280;69904;52.122;5.422;2023-09-12T04:35:02;101282.31;;;18.46;82.39
80186;BME280;69904;52.122;5.422;2023-09-12T04:37:29;101285.28;;;18.45;82.64
80186;BME280;69904;52.122;5.422;2023-09-12T04:39:56;101285.38;;;18.38;82.66
80186;BME280;69904;52.122;5.422;2023-09-12T04:42:23;101282.31;;;18.35;82.98
80186;BME280;69904;52.122;5.422;2023-09-12T04:44:49;101288.59;;;18.35;83.00
80186;BME280;69904;52.122;5.422;2023-09-12T04:47:16;101279.81;;;18.33;83.45
80186;BME280;69904;52.122;5.422;2023-09-12T04:49:43;101286.31;;;18.32;83.59
80186;BME280;69904;52.122;5.422;2023-09-12T04:52:10;101284.09;;;18.29;83.62
80186;BME280;69904;52.122;5.422;2023-09-12T04:54:36;101286.94;;;18.23;83.99
80186;BME280;69904;52.122;5.422;2023-09-12T04:57:03;101286.59;;;18.19;83.97
80186;BME280;69904;52.122;5.422;2023-09-12T04:59:29;101285.63;;;18.14;84.48
80186;BME280;69904;52.122;5.422;2023-09-12T05:01:56;101271.34;;;18.12;84.13
80186;BME280;69904;52.122;5.422;2023-09-12T05:04:22;101270.53;;;18.11;84.66
80186;BME280;69904;52.122;5.422;2023-09-12T05:06:49;101273.88;;;18.13;84.55
80186;BME280;69904;52.122;5.422;2023-09-12T05:09:15;101276.13;;;18.16;84.54
80186;BME280;69904;52.122;5.422;2023-09-12T05:11:42;101278.63;;;18.18;84.06
80186;BME280;69904;52.122;5.422;2023-09-12T05:14:09;101285.75;;;18.19;84.28
80186;BME280;69904;52.122;5.422;2023-09-12T05:16:35;101283.25;;;18.17;84.29
80186;BME280;69904;52.122;5.422;2023-09-12T05:19:02;101288.13;;;18.03;84.36
80186;BME280;69904;52.122;5.422;2023-09-12T05:21:30;101295.53;;;17.85;84.27
80186;BME280;69904;52.122;5.422;2023-09-12T05:23:56;101290.31;;;17.72;84.35
80186;BME280;69904;52.122;5.422;2023-09-12T05:26:22;101291.59;;;17.69;84.89
80186;BME280;69904;52.122;5.422;2023-09-12T05:28:49;101286.41;;;17.67;84.52
80186;BME280;69904;52.122;5.422;2023-09-12T05:31:16;101290.88;;;17.74;84.59
80186;BME280;69904;52.122;5.422;2023-09-12T05:33:42;101293.78;;;17.79;84.67
80186;BME280;69904;52.122;5.422;2023-09-12T05:36:09;101295.41;;;17.80;84.41
80186;BME280;69904;52.122;5.422;2023-09-12T05:38:36;101299.00;;;17.80;84.49
80186;BME280;69904;52.122;5.422;2023-09-12T05:41:02;101295.81;;;17.83;84.32
80186;BME280;69904;52.122;5.422;2023-09-12T05:43:29;101299.38;;;17.84;84.23
80186;BME280;69904;52.122;5.422;2023-09-12T05:45:55;101302.44;;;17.87;84.13
80186;BME280;69904;52.122;5.422;2023-09-12T05:48:23;101300.06;;;17.91;83.91
80186;BME280;69904;52.122;5.422;2023-09-12T05:50:50;101298.78;;;17.93;83.97
80186;BME280;69904;52.122;5.422;2023-09-12T05:53:16;101295.84;;;17.95;83.91
80186;BME280;69904;52.122;5.422;2023-09-12T05:55:43;101296.75;;;18.00;83.94
80186;BME280;69904;52.122;5.422;2023-09-12T05:58:09;101286.44;;;18.02;83.94
80186;BME280;69904;52.122;5.422;2023-09-12T06:00:36;101294.19;;;18.05;84.37
80186;BME280;69904;52.122;5.422;2023-09-12T06:03:02;101296.91;;;18.05;83.88
80186;BME280;69904;52.122;5.422;2023-09-12T06:05:29;101300.44;;;18.06;84.04
80186;BME280;69904;52.122;5.422;2023-09-12T06:07:56;101303.66;;;18.03;83.23
80186;BME280;69904;52.122;5.422;2023-09-12T06:10:22;101309.47;;;18.06;83.36
80186;BME280;69904;52.122;5.422;2023-09-12T06:12:49;101323.97;;;18.07;83.14
80186;BME280;69904;52.122;5.422;2023-09-12T06:15:16;101326.47;;;18.08;83.30
80186;BME280;69904;52.122;5.422;2023-09-12T06:17:42;101323.41;;;18.05;83.88
80186;BME280;69904;52.122;5.422;2023-09-12T06:20:09;101325.28;;;18.04;83.81
80186;BME280;69904;52.122;5.422;2023-09-12T06:22:36;101329.44;;;18.07;83.91
80186;BME280;69904;52.122;5.422;2023-09-12T06:25:02;101330.63;;;18.11;84.08
80186;BME280;69904;52.122;5.422;2023-09-12T06:27:29;101336.25;;;18.16;83.91
80186;BME280;69904;52.122;5.422;2023-09-12T06:29:57;101331.34;;;18.18;83.85
80186;BME280;69904;52.122;5.422;2023-09-12T06:32:24;101331.13;;;18.20;84.12
80186;BME280;69904;52.122;5.422;2023-09-12T06:34:50;101333.63;;;18.21;83.75
80186;BME280;69904;52.122;5.422;2023-09-12T06:37:17;101338.63;;;18.24;84.13
80186;BME280;69904;52.122;5.422;2023-09-12T06:39:44;101332.94;;;18.26;84.08
80186;BME280;69904;52.122;5.422;2023-09-12T06:42:11;101334.34;;;18.28;83.99
80186;BME280;69904;52.122;5.422;2023-09-12T06:44:37;101335.78;;;18.31;84.41
80186;BME280;69904;52.122;5.422;2023-09-12T06:47:04;101332.56;;;18.34;84.35
80186;BME280;69904;52.122;5.422;2023-09-12T06:49:31;101334.84;;;18.37;84.63
80186;BME280;69904;52.122;5.422;2023-09-12T06:52:01;101338.16;;;18.39;84.42
80186;BME280;69904;52.122;5.422;2023-09-12T06:54:27;101339.81;;;18.40;84.78
80186;BME280;69904;52.122;5.422;2023-09-12T06:56:54;101335.66;;;18.37;84.99
80186;BME280;69904;52.122;5.422;2023-09-12T06:59:20;101340.53;;;18.35;85.25
80186;BME280;69904;52.122;5.422;2023-09-12T07:01:46;101337.78;;;18.35;85.13
80186;BME280;69904;52.122;5.422;2023-09-12T07:04:13;101342.78;;;18.38;84.98
80186;BME280;69904;52.122;5.422;2023-09-12T07:06:40;101342.53;;;18.40;85.34
80186;BME280;69904;52.122;5.422;2023-09-12T07:09:06;101338.25;;;18.44;85.59
80186;BME280;69904;52.122;5.422;2023-09-12T07:11:35;101344.81;;;18.43;85.71
80186;BME280;69904;52.122;5.422;2023-09-12T07:14:01;101345.88;;;18.42;85.74
80186;BME280;69904;52.122;5.422;2023-09-12T07:16:31;101343.28;;;18.47;85.87
80186;BME280;69904;52.122;5.422;2023-09-12T07:18:58;101337.09;;;18.51;85.96
80186;BME280;69904;52.122;5.422;2023-09-12T07:21:24;101332.47;;;18.52;85.74
80186;BME280;69904;52.122;5.422;2023-09-12T07:23:50;101329.50;;;18.54;85.64
80186;BME280;69904;52.122;5.422;2023-09-12T07:26:17;101337.47;;;18.55;85.97
80186;BME280;69904;52.122;5.422;2023-09-12T07:28:43;101335.56;;;18.56;85.85
80186;BME280;69904;52.122;5.422;2023-09-12T07:31:10;101345.41;;;18.45;86.27
80186;BME280;69904;52.122;5.422;2023-09-12T07:33:36;101334.69;;;18.43;86.23
80186;BME280;69904;52.122;5.422;2023-09-12T07:36:03;101344.69;;;18.49;86.35
80186;BME280;69904;52.122;5.422;2023-09-12T07:38:30;101342.34;;;18.53;86.69
80186;BME280;69904;52.122;5.422;2023-09-12T07:41:01;101344.00;;;18.54;86.65
80186;BME280;69904;52.122;5.422;2023-09-12T07:43:29;101347.13;;;18.58;86.50
80186;BME280;69904;52.122;5.422;2023-09-12T07:45:57;101344.50;;;18.63;86.73
80186;BME280;69904;52.122;5.422;2023-09-12T07:48:24;101340.19;;;18.67;86.71
80186;BME280;69904;52.122;5.422;2023-09-12T07:50:50;101346.63;;;18.72;86.50
80186;BME280;69904;52.122;5.422;2023-09-12T07:53:19;101348.50;;;18.83;86.71
80186;BME280;69904;52.122;5.422;2023-09-12T07:55:45;101343.25;;;18.93;86.25
80186;BME280;69904;52.122;5.422;2023-09-12T07:58:16;101343.38;;;18.99;85.88
80186;BME280;69904;52.122;5.422;2023-09-12T08:00:46;101339.34;;;19.01;85.57
80186;BME280;69904;52.122;5.422;2023-09-12T08:03:13;101347.16;;;18.98;86.05
80186;BME280;69904;52.122;5.422;2023-09-12T08:05:40;101351.22;;;19.07;86.02
80186;BME280;69904;52.122;5.422;2023-09-12T08:08:07;101352.16;;;19.12;86.08
80186;BME280;69904;52.122;5.422;2023-09-12T08:10:33;101362.13;;;19.18;86.30
80186;BME280;69904;52.122;5.422;2023-09-12T08:13:00;101367.13;;;19.21;86.04
80186;BME280;69904;52.122;5.422;2023-09-12T08:15:26;101368.41;;;19.30;86.39
80186;BME280;69904;52.122;5.422;2023-09-12T08:17:53;101365.03;;;19.40;86.45
80186;BME280;69904;52.122;5.422;2023-09-12T08:20:20;101373.38;;;19.45;86.15
80186;BME280;69904;52.122;5.422;2023-09-12T08:22:47;101375.88;;;19.47;85.71
80186;BME280;69904;52.122;5.422;2023-09-12T08:25:15;101371.47;;;19.46;86.26
80186;BME280;69904;52.122;5.422;2023-09-12T08:27:41;101368.59;;;19.52;85.91
80186;BME280;69904;52.122;5.422;2023-09-12T08:30:12;101370.84;;;19.55;86.02
80186;BME280;69904;52.122;5.422;2023-09-12T08:32:40;101374.59;;;19.66;85.75
80186;BME280;69904;52.122;5.422;2023-09-12T08:35:11;101376.38;;;19.72;85.19
80186;BME280;69904;52.122;5.422;2023-09-12T08:37:41;101373.72;;;19.77;85.12
80186;BME280;69904;52.122;5.422;2023-09-12T08:40:09;101372.84;;;19.88;85.40
80186;BME280;69904;52.122;5.422;2023-09-12T08:42:41;101372.94;;;19.93;85.04
80186;BME280;69904;52.122;5.422;2023-09-12T08:45:26;101373.22;;;20.08;85.10
80186;BME280;69904;52.122;5.422;2023-09-12T08:47:54;101367.91;;;20.18;84.54
80186;BME280;69904;52.122;5.422;2023-09-12T08:50:21;101368.84;;;20.24;84.16
80186;BME280;69904;52.122;5.422;2023-09-12T08:52:50;101363.69;;;20.28;83.79
80186;BME280;69904;52.122;5.422;2023-09-12T08:55:33;101370.69;;;20.35;83.75
80186;BME280;69904;52.122;5.422;2023-09-12T08:58:03;101374.44;;;20.46;83.39
80186;BME280;69904;52.122;5.422;2023-09-12T09:00:30;101366.28;;;20.51;82.97
80186;BME280;69904;52.122;5.422;2023-09-12T09:02:57;101370.75;;;20.57;83.21
80186;BME280;69904;52.122;5.422;2023-09-12T09:05:25;101368.91;;;20.63;82.97
80186;BME280;69904;52.122;5.422;2023-09-12T09:07:53;101360.34;;;20.76;82.70
80186;BME280;69904;52.122;5.422;2023-09-12T09:10:22;101371.53;;;20.91;81.93
80186;BME280;69904;52.122;5.422;2023-09-12T09:13:03;101375.19;;;20.96;81.41
80186;BME280;69904;52.122;5.422;2023-09-12T09:15:29;101375.50;;;21.00;81.06
80186;BME280;69904;52.122;5.422;2023-09-12T09:17:57;101376.06;;;21.02;81.20
80186;BME280;69904;52.122;5.422;2023-09-12T09:20:29;101376.84;;;21.14;80.41
80186;BME280;69904;52.122;5.422;2023-09-12T09:23:01;101384.44;;;21.12;80.42
80186;BME280;69904;52.122;5.422;2023-09-12T09:25:32;101384.66;;;20.89;80.25
80186;BME280;69904;52.122;5.422;2023-09-12T09:28:02;101390.59;;;20.81;80.54
80186;BME280;69904;52.122;5.422;2023-09-12T09:30:47;101396.69;;;20.83;80.38
80186;BME280;69904;52.122;5.422;2023-09-12T09:33:14;101388.91;;;20.96;80.60
80186;BME280;69904;52.122;5.422;2023-09-12T09:35:42;101390.31;;;20.99;79.96
80186;BME280;69904;52.122;5.422;2023-09-12T09:38:09;101388.38;;;20.99;80.13
80186;BME280;69904;52.122;5.422;2023-09-12T09:40:36;101389.50;;;20.98;79.59
80186;BME280;69904;52.122;5.422;2023-09-12T09:43:03;101393.31;;;20.97;79.91
80186;BME280;69904;52.122;5.422;2023-09-12T09:45:30;101389.81;;;21.02;79.49
80186;BME280;69904;52.122;5.422;2023-09-12T09:48:03;101387.81;;;21.14;79.26
80186;BME280;69904;52.122;5.422;2023-09-12T09:50:30;101388.50;;;21.26;78.90
80186;BME280;69904;52.122;5.422;2023-09-12T09:52:57;101393.63;;;21.39;78.43
80186;BME280;69904;52.122;5.422;2023-09-12T09:55:23;101381.97;;;21.54;78.70
80186;BME280;69904;52.122;5.422;2023-09-12T09:57:50;101388.31;;;21.55;78.43
80186;BME280;69904;52.122;5.422;2023-09-12T10:00:21;101388.91;;;21.35;78.45
80186;BME280;69904;52.122;5.422;2023-09-12T10:02:50;101388.72;;;21.41;78.05
80186;BME280;69904;52.122;5.422;2023-09-12T10:05:21;101391.59;;;21.52;77.76
80186;BME280;69904;52.122;5.422;2023-09-12T10:07:49;101391.16;;;21.65;77.41
80186;BME280;69904;52.122;5.422;2023-09-12T10:10:18;101397.06;;;21.73;76.83
80186;BME280;69904;52.122;5.422;2023-09-12T10:13:03;101397.84;;;21.69;77.09
80186;BME280;69904;52.122;5.422;2023-09-12T10:15:30;101411.41;;;21.80;77.16
80186;BME280;69904;52.122;5.422;2023-09-12T10:18:02;101396.84;;;22.07;77.09
80186;BME280;69904;52.122;5.422;2023-09-12T10:20:52;101399.28;;;22.30;75.35
80186;BME280;69904;52.122;5.422;2023-09-12T10:23:44;101395.22;;;22.06;75.75
80186;BME280;69904;52.122;5.422;2023-09-12T10:26:13;101403.81;;;22.14;75.72
80186;BME280;69904;52.122;5.422;2023-09-12T10:28:41;101397.28;;;22.20;75.03
80186;BME280;69904;52.122;5.422;2023-09-12T10:31:11;101392.16;;;22.34;74.84
80186;BME280;69904;52.122;5.422;2023-09-12T10:33:38;101376.94;;;22.53;73.81
80186;BME280;69904;52.122;5.422;2023-09-12T10:36:06;101376.84;;;22.75;72.96
80186;BME280;69904;52.122;5.422;2023-09-12T10:38:40;101380.81;;;22.99;72.40
80186;BME280;69904;52.122;5.422;2023-09-12T10:41:08;101376.81;;;23.22;72.64
80186;BME280;69904;52.122;5.422;2023-09-12T10:43:37;101382.66;;;23.41;71.74
80186;BME280;69904;52.122;5.422;2023-09-12T10:46:03;101383.19;;;23.28;72.09
80186;BME280;69904;52.122;5.422;2023-09-12T10:48:31;101388.94;;;23.21;72.21
80186;BME280;69904;52.122;5.422;2023-09-12T10:51:00;101395.97;;;22.97;72.34
80186;BME280;69904;52.122;5.422;2023-09-12T10:53:27;101396.53;;;23.04;72.11
80186;BME280;69904;52.122;5.422;2023-09-12T11:01:34;101392.81;;;23.30;70.97
80186;BME280;69904;52.122;5.422;2023-09-12T11:06:54;101391.88;;;23.62;69.65
80186;BME280;69904;52.122;5.422;2023-09-12T11:09:24;101398.22;;;23.72;69.71
80186;BME280;69904;52.122;5.422;2023-09-12T11:12:04;101397.16;;;23.73;69.94
80186;BME280;69904;52.122;5.422;2023-09-12T11:14:32;101393.84;;;23.66;70.20
80186;BME280;69904;52.122;5.422;2023-09-12T11:19:47;101385.69;;;23.34;70.34
80186;BME280;69904;52.122;5.422;2023-09-12T11:22:25;101379.41;;;23.44;69.75
80186;BME280;69904;52.122;5.422;2023-09-12T11:24:53;101376.97;;;23.58;69.30
80186;BME280;69904;52.122;5.422;2023-09-12T11:27:24;101365.44;;;23.66;68.84
80186;BME280;69904;52.122;5.422;2023-09-12T11:29:51;101364.88;;;23.69;69.31
80186;BME280;69904;52.122;5.422;2023-09-12T11:32:35;101366.28;;;23.66;68.30
80186;BME280;69904;52.122;5.422;2023-09-12T11:35:06;101362.94;;;23.59;68.07
80186;BME280;69904;52.122;5.422;2023-09-12T11:37:34;101354.06;;;23.47;68.99
80186;BME280;69904;52.122;5.422;2023-09-12T11:42:39;101363.09;;;23.32;68.44
80186;BME280;69904;52.122;5.422;2023-09-12T11:45:09;101359.22;;;23.28;68.83
80186;BME280;69904;52.122;5.422;2023-09-12T11:47:43;101370.25;;;23.33;67.92
80186;BME280;69904;52.122;5.422;2023-09-12T11:50:35;101369.47;;;23.43;67.84
80186;BME280;69904;52.122;5.422;2023-09-12T11:53:08;101363.44;;;23.51;67.64
80186;BME280;69904;52.122;5.422;2023-09-12T11:55:42;101365.69;;;23.59;67.60
80186;BME280;69904;52.122;5.422;2023-09-12T11:58:13;101360.47;;;23.63;67.26
80186;BME280;69904;52.122;5.422;2023-09-12T12:00:51;101360.78;;;23.76;66.96
80186;BME280;69904;52.122;5.422;2023-09-12T12:03:20;101370.16;;;23.85;66.39
80186;BME280;69904;52.122;5.422;2023-09-12T12:05:48;101367.69;;;23.89;66.11
80186;BME280;69904;52.122;5.422;2023-09-12T12:08:16;101365.50;;;23.96;65.97
80186;BME280;69904;52.122;5.422;2023-09-12T12:10:57;101358.88;;;24.07;65.80
80186;BME280;69904;52.122;5.422;2023-09-12T12:13:25;101368.84;;;24.18;65.70
80186;BME280;69904;52.122;5.422;2023-09-12T12:18:18;101363.06;;;24.40;65.71
80186;BME280;69904;52.122;5.422;2023-09-12T12:20:45;101355.88;;;24.49;65.69
80186;BME280;69904;52.122;5.422;2023-09-12T12:23:12;101353.13;;;24.49;64.37
80186;BME280;69904;52.122;5.422;2023-09-12T12:25:38;101342.06;;;24.54;64.99
80186;BME280;69904;52.122;5.422;2023-09-12T12:28:06;101342.66;;;24.46;64.96
80186;BME280;69904;52.122;5.422;2023-09-12T12:30:34;101337.94;;;24.37;64.75
80186;BME280;69904;52.122;5.422;2023-09-12T12:33:07;101342.63;;;24.26;64.23
80186;BME280;69904;52.122;5.422;2023-09-12T12:36:00;101342.09;;;24.19;64.24
80186;BME280;69904;52.122;5.422;2023-09-12T12:38:32;101335.16;;;24.16;64.04
80186;BME280;69904;52.122;5.422;2023-09-12T12:40:59;101338.25;;;24.25;63.15
80186;BME280;69904;52.122;5.422;2023-09-12T12:43:26;101339.88;;;24.31;63.39
80186;BME280;69904;52.122;5.422;2023-09-12T12:45:54;101333.81;;;24.39;63.00
80186;BME280;69904;52.122;5.422;2023-09-12T12:48:35;101337.13;;;24.46;62.88
80186;BME280;69904;52.122;5.422;2023-09-12T12:51:19;101329.94;;;24.55;62.39
80186;BME280;69904;52.122;5.422;2023-09-12T12:53:53;101326.91;;;24.52;61.80
80186;BME280;69904;52.122;5.422;2023-09-12T12:56:22;101338.47;;;24.49;62.48
80186;BME280;69904;52.122;5.422;2023-09-12T12:58:55;101324.69;;;24.54;61.04
80186;BME280;69904;52.122;5.422;2023-09-12T13:01:23;101331.03;;;24.49;58.92
80186;BME280;69904;52.122;5.422;2023-09-12T13:03:50;101335.19;;;24.57;58.55
80186;BME280;69904;52.122;5.422;2023-09-12T13:06:17;101340.41;;;24.58;57.66
80186;BME280;69904;52.122;5.422;2023-09-12T13:08:45;101340.44;;;24.38;58.35
80186;BME280;69904;52.122;5.422;2023-09-12T13:11:13;101335.19;;;24.26;59.10
80186;BME280;69904;52.122;5.422;2023-09-12T13:13:43;101335.75;;;24.23;59.57